createdAt,value
2023-02-23T00:00:23.857Z,10.50
2023-02-23T00:01:27.963Z,10.90
2023-02-23T00:02:31.175Z,9.90
2023-02-23T00:03:34.219Z,8.00
2023-02-23T00:04:37.515Z,11.30
2023-02-23T00:05:41.136Z,13.40
2023-02-23T00:06:44.418Z,9.10
2023-02-23T00:07:47.074Z,9.80
2023-02-23T00:08:51.349Z,11.80
2023-02-23T00:09:55.671Z,10.50
2023-02-23T00:11:00.039Z,10.30
2023-02-23T00:12:05.717Z,10.60
2023-02-23T00:13:10.138Z,10.20
2023-02-23T00:14:14.214Z,10.20
2023-02-23T00:15:17.298Z,11.90
2023-02-23T00:16:22.076Z,9.80
2023-02-23T00:17:24.859Z,9.80
2023-02-23T00:18:29.075Z,10.50
2023-02-23T00:19:36.832Z,9.30
2023-02-23T00:20:41.683Z,9.70
2023-02-23T00:21:44.958Z,9.80
2023-02-23T00:22:49.482Z,12.40
2023-02-23T00:23:58.075Z,9.30
2023-02-23T00:25:01.317Z,8.10
2023-02-23T00:26:05.181Z,9.60
2023-02-23T00:27:07.581Z,10.80
2023-02-23T00:28:10.894Z,9.90
2023-02-23T00:30:29.082Z,11.30
2023-02-23T00:31:33.176Z,10.20
2023-02-23T00:32:36.284Z,10.80
2023-02-23T00:33:39.168Z,8.91
2023-02-23T00:34:41.893Z,10.64
2023-02-23T00:35:45.288Z,7.60
2023-02-23T00:36:54.785Z,8.00
2023-02-23T00:37:58.072Z,9.20
2023-02-23T00:39:05.799Z,9.00
2023-02-23T00:40:15.356Z,10.50
2023-02-23T00:42:33.333Z,10.70
2023-02-23T00:43:41.685Z,10.90
2023-02-23T00:44:46.306Z,9.30
2023-02-23T00:45:49.139Z,10.50
2023-02-23T00:46:53.000Z,8.18
2023-02-23T00:47:55.758Z,10.90
2023-02-23T00:48:58.489Z,10.80
2023-02-23T00:50:01.408Z,10.50
2023-02-23T00:51:04.674Z,9.45
2023-02-23T00:52:09.376Z,10.90
2023-02-23T00:53:13.671Z,9.70
2023-02-23T00:54:16.971Z,7.40
2023-02-23T00:55:20.437Z,9.90
2023-02-23T00:56:23.195Z,8.90
2023-02-23T00:57:25.837Z,9.64
2023-02-23T00:58:29.900Z,6.70
2023-02-23T00:59:32.503Z,9.50
2023-02-23T01:00:37.031Z,8.90
2023-02-23T01:01:41.137Z,8.20
2023-02-23T01:02:43.872Z,9.30
2023-02-23T01:03:46.603Z,10.18
2023-02-23T01:04:49.161Z,10.30
2023-02-23T01:05:52.333Z,10.20
2023-02-23T01:06:54.971Z,9.40
2023-02-23T01:07:58.530Z,8.10
2023-02-23T01:09:03.089Z,9.10
2023-02-23T01:11:23.004Z,8.90
2023-02-23T01:12:25.840Z,10.20
2023-02-23T01:13:29.029Z,9.00
2023-02-23T01:14:31.938Z,9.70
2023-02-23T01:15:34.569Z,8.30
2023-02-23T01:16:39.139Z,9.55
2023-02-23T01:17:42.443Z,8.00
2023-02-23T01:18:46.443Z,7.90
2023-02-23T01:19:49.034Z,7.64
2023-02-23T01:20:52.446Z,9.00
2023-02-23T01:21:56.031Z,8.00
2023-02-23T01:22:59.008Z,7.60
2023-02-23T01:24:01.841Z,8.50
2023-02-23T01:25:05.135Z,9.50
2023-02-23T01:26:18.621Z,9.30
2023-02-23T01:27:21.218Z,5.20
2023-02-23T01:28:24.030Z,7.80
2023-02-23T01:29:26.852Z,8.55
2023-02-23T01:30:29.667Z,9.20
2023-02-23T01:31:32.432Z,9.30
2023-02-23T01:32:36.961Z,7.50
2023-02-23T01:33:39.440Z,9.00
2023-02-23T01:34:42.188Z,6.60
2023-02-23T01:35:44.676Z,9.18
2023-02-23T01:36:48.587Z,9.10
2023-02-23T01:37:51.106Z,9.20
2023-02-23T01:38:56.031Z,7.50
2023-02-23T01:39:58.509Z,8.20
2023-02-23T01:41:01.665Z,7.73
2023-02-23T01:42:09.189Z,7.20
2023-02-23T01:44:41.748Z,8.90
2023-02-23T01:45:45.322Z,8.20
2023-02-23T01:46:49.654Z,9.50
2023-02-23T01:48:00.442Z,8.30
2023-02-23T01:49:03.391Z,8.40
2023-02-23T01:50:11.074Z,7.20
2023-02-23T01:51:18.204Z,6.60
2023-02-23T01:52:20.938Z,7.60
2023-02-23T01:53:26.262Z,9.20
2023-02-23T01:54:31.945Z,8.60
2023-02-23T01:55:35.524Z,8.80
2023-02-23T01:56:44.698Z,7.30
2023-02-23T01:57:47.262Z,8.30
2023-02-23T01:58:54.145Z,11.00
2023-02-23T01:59:56.648Z,9.00
2023-02-23T02:01:02.563Z,10.09
2023-02-23T02:02:05.724Z,8.20
2023-02-23T02:03:11.194Z,8.27
2023-02-23T02:04:15.994Z,9.00
2023-02-23T02:05:19.065Z,7.80
2023-02-23T02:06:24.363Z,8.00
2023-02-23T02:07:29.854Z,7.80
2023-02-23T02:08:34.009Z,9.30
2023-02-23T02:09:38.263Z,8.90
2023-02-23T02:10:42.897Z,8.40
2023-02-23T02:12:59.430Z,7.70
2023-02-23T02:14:11.549Z,8.10
2023-02-23T02:15:16.694Z,9.30
2023-02-23T02:16:33.564Z,1.30
2023-02-23T02:17:59.586Z,7.70
2023-02-23T02:21:00.895Z,7.10
2023-02-23T02:22:27.992Z,7.90
2023-02-23T02:23:44.277Z,6.70
2023-02-23T02:25:12.345Z,7.20
2023-02-23T02:26:39.846Z,7.30
2023-02-23T02:27:58.768Z,6.40
2023-02-23T02:29:30.461Z,7.00
2023-02-23T02:30:49.527Z,8.50
2023-02-23T02:32:00.523Z,6.10
2023-02-23T02:33:43.478Z,8.50
2023-02-23T02:34:52.752Z,8.70
2023-02-23T02:36:27.453Z,7.80
2023-02-23T02:37:48.679Z,7.80
2023-02-23T02:40:30.210Z,8.20
2023-02-23T02:41:41.801Z,6.90
2023-02-23T02:44:37.788Z,6.40
2023-02-23T02:45:47.539Z,8.10
2023-02-23T02:46:54.421Z,8.50
2023-02-23T02:48:14.436Z,7.50
2023-02-23T02:49:26.116Z,9.00
2023-02-23T02:52:00.420Z,6.90
2023-02-23T02:54:25.640Z,5.70
2023-02-23T02:55:31.279Z,7.80
2023-02-23T02:56:41.332Z,7.50
2023-02-23T02:57:46.231Z,8.60
2023-02-23T02:58:50.767Z,7.70
2023-02-23T03:00:12.177Z,5.50
2023-02-23T03:01:34.122Z,8.90
2023-02-23T03:02:56.958Z,7.50
2023-02-23T03:04:19.944Z,6.40
2023-02-23T03:05:44.513Z,8.60
2023-02-23T03:07:14.541Z,7.30
2023-02-23T03:08:43.768Z,3.10
2023-02-23T03:12:04.236Z,6.90
2023-02-23T03:13:45.072Z,7.70
2023-02-23T03:15:10.052Z,8.70
2023-02-23T03:16:51.171Z,7.70
2023-02-23T03:18:17.007Z,6.70
2023-02-23T03:19:41.887Z,6.50
2023-02-23T03:21:05.865Z,7.10
2023-02-23T03:22:36.650Z,7.30
2023-02-23T03:24:19.892Z,7.70
2023-02-23T03:25:50.727Z,8.30
2023-02-23T03:27:14.911Z,8.60
2023-02-23T03:28:42.463Z,8.40
2023-02-23T03:30:30.945Z,7.20
2023-02-23T03:32:02.119Z,7.60
2023-02-23T03:33:27.725Z,8.60
2023-02-23T03:34:58.377Z,7.30
2023-02-23T03:36:30.053Z,8.00
2023-02-23T03:37:57.158Z,6.80
2023-02-23T03:39:35.214Z,6.50
2023-02-23T03:40:57.816Z,7.50
2023-02-23T03:42:20.116Z,7.20
2023-02-23T03:43:44.745Z,8.10
2023-02-23T03:45:07.127Z,8.40
2023-02-23T03:46:30.469Z,8.60
2023-02-23T03:47:53.306Z,7.50
2023-02-23T03:49:14.728Z,6.50
2023-02-23T03:50:43.158Z,6.00
2023-02-23T03:52:06.129Z,9.00
2023-02-23T03:53:27.101Z,8.60
2023-02-23T03:54:53.912Z,8.60
2023-02-23T03:56:17.891Z,10.80
2023-02-23T03:57:39.269Z,10.50
2023-02-23T03:59:04.286Z,10.10
2023-02-23T04:00:29.054Z,11.80
2023-02-23T04:01:50.038Z,7.60
2023-02-23T04:03:12.028Z,7.20
2023-02-23T04:04:34.317Z,10.70
2023-02-23T04:05:57.793Z,10.20
2023-02-23T04:07:19.666Z,10.70
2023-02-23T04:08:44.476Z,9.90
2023-02-23T04:10:05.846Z,10.20
2023-02-23T04:11:41.366Z,9.80
2023-02-23T04:13:15.943Z,10.80
2023-02-23T04:14:37.639Z,11.10
2023-02-23T04:16:58.441Z,8.10
2023-02-23T04:18:03.795Z,9.40
2023-02-23T04:19:07.386Z,11.70
2023-02-23T04:20:11.849Z,10.50
2023-02-23T04:21:15.272Z,11.70
2023-02-23T04:22:19.201Z,11.80
2023-02-23T04:23:22.625Z,10.20
2023-02-23T04:24:26.376Z,10.60
2023-02-23T04:25:29.296Z,9.70
2023-02-23T04:26:32.093Z,11.60
2023-02-23T04:27:35.745Z,6.60
2023-02-23T04:28:39.497Z,7.10
2023-02-23T04:29:42.592Z,10.60
2023-02-23T04:30:45.801Z,10.40
2023-02-23T04:31:49.738Z,12.40
2023-02-23T04:32:52.555Z,10.20
2023-02-23T04:33:55.148Z,10.82
2023-02-23T04:34:57.691Z,11.30
2023-02-23T04:36:00.330Z,10.20
2023-02-23T04:37:03.878Z,11.00
2023-02-23T04:38:06.880Z,11.60
2023-02-23T04:39:09.452Z,10.70
2023-02-23T04:40:13.786Z,12.00
2023-02-23T04:41:16.385Z,11.70
2023-02-23T04:42:19.036Z,11.40
2023-02-23T04:43:21.458Z,11.70
2023-02-23T04:44:24.253Z,10.70
2023-02-23T04:45:27.772Z,11.82
2023-02-23T04:46:30.650Z,9.90
2023-02-23T04:47:33.661Z,10.64
2023-02-23T04:48:36.301Z,12.50
2023-02-23T04:49:38.940Z,9.80
2023-02-23T04:50:41.826Z,10.00
2023-02-23T04:51:45.476Z,11.36
2023-02-23T04:52:48.675Z,12.10
2023-02-23T04:53:51.169Z,10.60
2023-02-23T04:54:53.650Z,12.80
2023-02-23T04:55:56.818Z,11.60
2023-02-23T04:56:59.251Z,10.20
2023-02-23T04:58:02.907Z,11.55
2023-02-23T04:59:07.338Z,12.10
2023-02-23T05:00:11.478Z,11.20
2023-02-23T05:01:14.538Z,12.10
2023-02-23T05:02:17.350Z,9.80
2023-02-23T05:03:20.073Z,12.00
2023-02-23T05:04:22.631Z,11.20
2023-02-23T05:05:25.210Z,11.20
2023-02-23T05:06:27.804Z,10.90
2023-02-23T05:07:30.487Z,11.60
2023-02-23T05:08:36.834Z,11.60
2023-02-23T05:09:41.455Z,11.80
2023-02-23T05:10:45.974Z,11.70
2023-02-23T05:11:49.054Z,12.10
2023-02-23T05:12:52.394Z,3.82
2023-02-23T05:13:55.667Z,11.40
2023-02-23T05:14:58.684Z,11.60
2023-02-23T05:16:01.598Z,11.40
2023-02-23T05:17:04.697Z,11.90
2023-02-23T05:18:08.322Z,10.80
2023-02-23T05:19:11.783Z,9.20
2023-02-23T05:20:14.566Z,11.70
2023-02-23T05:21:18.447Z,12.00
2023-02-23T05:22:22.442Z,12.40
2023-02-23T05:23:25.018Z,12.10
2023-02-23T05:24:27.372Z,10.20
2023-02-23T05:25:29.749Z,13.80
2023-02-23T05:26:32.513Z,10.60
2023-02-23T05:27:36.290Z,13.50
2023-02-23T05:28:39.947Z,15.10
2023-02-23T05:29:42.590Z,14.20
2023-02-23T05:30:45.846Z,17.40
2023-02-23T05:31:50.026Z,18.20
2023-02-23T05:32:52.499Z,24.90
2023-02-23T05:33:54.985Z,25.20
2023-02-23T05:34:58.066Z,27.50
2023-02-23T05:36:03.699Z,27.90
2023-02-23T05:37:07.370Z,31.10
2023-02-23T05:38:10.162Z,29.10
2023-02-23T05:39:12.552Z,36.30
2023-02-23T05:40:17.298Z,39.80
2023-02-23T05:41:22.519Z,44.10
2023-02-23T05:42:25.117Z,47.70
2023-02-23T05:43:28.189Z,47.00
2023-02-23T05:44:31.746Z,49.40
2023-02-23T05:45:35.334Z,51.50
2023-02-23T05:46:38.653Z,48.40
2023-02-23T05:47:41.761Z,55.00
2023-02-23T05:48:44.742Z,48.73
2023-02-23T05:49:47.590Z,53.73
2023-02-23T05:50:51.198Z,53.20
2023-02-23T05:51:53.933Z,55.00
2023-02-23T05:52:56.495Z,51.40
2023-02-23T05:54:00.090Z,50.60
2023-02-23T05:55:03.017Z,50.80
2023-02-23T05:56:07.516Z,46.80
2023-02-23T05:57:10.270Z,47.00
2023-02-23T05:58:12.633Z,46.10
2023-02-23T05:59:16.855Z,44.10
2023-02-23T06:00:21.541Z,45.30
2023-02-23T06:01:24.915Z,45.60
2023-02-23T06:02:27.487Z,43.30
2023-02-23T06:03:30.501Z,42.00
2023-02-23T06:04:33.249Z,39.00
2023-02-23T06:05:36.490Z,37.00
2023-02-23T06:06:39.449Z,40.30
2023-02-23T06:07:42.294Z,40.45
2023-02-23T06:08:45.824Z,35.90
2023-02-23T06:09:48.421Z,37.00
2023-02-23T06:10:52.014Z,36.10
2023-02-23T06:11:54.667Z,35.60
2023-02-23T06:12:58.109Z,34.50
2023-02-23T06:14:01.758Z,37.80
2023-02-23T06:15:05.991Z,37.20
2023-02-23T06:16:09.088Z,36.00
2023-02-23T06:17:12.636Z,34.73
2023-02-23T06:18:18.072Z,31.40
2023-02-23T06:19:21.733Z,34.70
2023-02-23T06:20:25.240Z,33.20
2023-02-23T06:21:27.707Z,32.60
2023-02-23T06:22:31.100Z,29.90
2023-02-23T06:23:34.204Z,29.40
2023-02-23T06:24:37.264Z,36.10
2023-02-23T06:25:40.487Z,30.10
2023-02-23T06:26:44.543Z,33.80
2023-02-23T06:27:47.300Z,31.70
2023-02-23T06:28:50.168Z,27.90
2023-02-23T06:29:52.876Z,30.36
2023-02-23T06:30:56.016Z,30.60
2023-02-23T06:32:00.969Z,25.20
2023-02-23T06:33:04.166Z,35.10
2023-02-23T06:34:07.205Z,31.40
2023-02-23T06:35:10.033Z,29.00
2023-02-23T06:36:12.745Z,31.45
2023-02-23T06:37:15.333Z,25.80
2023-02-23T06:38:20.226Z,30.30
2023-02-23T06:39:22.838Z,27.70
2023-02-23T06:40:26.085Z,30.80
2023-02-23T06:41:28.857Z,30.40
2023-02-23T06:42:31.798Z,28.80
2023-02-23T06:43:35.825Z,27.36
2023-02-23T06:44:39.075Z,28.90
2023-02-23T06:45:41.470Z,27.40
2023-02-23T06:46:43.893Z,27.90
2023-02-23T06:47:47.024Z,28.00
2023-02-23T06:48:49.928Z,25.70
2023-02-23T06:49:53.276Z,26.27
2023-02-23T06:50:59.071Z,26.40
2023-02-23T06:52:01.596Z,25.30
2023-02-23T06:53:04.871Z,28.10
2023-02-23T06:54:07.405Z,27.70
2023-02-23T06:55:10.274Z,25.70
2023-02-23T06:56:13.590Z,26.70
2023-02-23T06:57:16.568Z,24.80
2023-02-23T06:58:19.303Z,17.80
2023-02-23T06:59:21.744Z,24.20
2023-02-23T07:00:25.615Z,28.70
2023-02-23T07:01:29.640Z,24.50
2023-02-23T07:02:32.736Z,29.90
2023-02-23T07:03:35.415Z,24.90
2023-02-23T07:04:38.070Z,27.90
2023-02-23T07:05:41.156Z,28.10
2023-02-23T07:06:44.226Z,28.00
2023-02-23T07:07:46.895Z,26.00
2023-02-23T07:08:49.333Z,25.80
2023-02-23T07:09:52.094Z,21.40
2023-02-23T07:10:58.285Z,25.00
2023-02-23T07:12:01.775Z,23.30
2023-02-23T07:13:05.162Z,26.20
2023-02-23T07:14:12.907Z,22.90
2023-02-23T07:15:17.003Z,28.90
2023-02-23T07:16:21.328Z,23.50
2023-02-23T07:17:24.075Z,27.50
2023-02-23T07:18:26.941Z,25.70
2023-02-23T07:19:31.017Z,25.80
2023-02-23T07:20:34.229Z,26.80
2023-02-23T07:21:37.166Z,28.82
2023-02-23T07:22:40.779Z,28.60
2023-02-23T07:23:43.419Z,27.30
2023-02-23T07:24:46.767Z,25.60
2023-02-23T07:25:52.973Z,26.60
2023-02-23T07:26:56.232Z,28.00
2023-02-23T07:27:58.628Z,23.40
2023-02-23T07:29:03.012Z,24.60
2023-02-23T07:30:10.113Z,24.20
2023-02-23T07:31:12.819Z,30.30
2023-02-23T07:32:16.704Z,23.20
2023-02-23T07:33:19.517Z,22.60
2023-02-23T07:34:22.434Z,26.27
2023-02-23T07:35:26.280Z,24.50
2023-02-23T07:36:29.583Z,25.70
2023-02-23T07:37:33.263Z,22.10
2023-02-23T07:38:36.085Z,27.60
2023-02-23T07:39:38.814Z,23.36
2023-02-23T07:40:41.373Z,27.60
2023-02-23T07:41:45.144Z,26.27
2023-02-23T07:42:55.500Z,23.00
2023-02-23T07:43:58.603Z,24.70
2023-02-23T07:45:02.699Z,22.50
2023-02-23T07:46:06.146Z,21.00
2023-02-23T07:47:09.268Z,23.73
2023-02-23T07:48:12.799Z,22.30
2023-02-23T07:49:15.214Z,26.90
2023-02-23T07:50:18.674Z,23.40
2023-02-23T07:51:22.751Z,24.45
2023-02-23T07:52:26.139Z,23.00
2023-02-23T07:53:29.191Z,15.40
2023-02-23T07:54:33.395Z,22.30
2023-02-23T07:55:38.749Z,17.30
2023-02-23T07:56:42.420Z,21.90
2023-02-23T07:57:45.376Z,21.30
2023-02-23T07:58:47.942Z,26.20
2023-02-23T07:59:50.626Z,24.20
2023-02-23T08:00:53.940Z,23.09
2023-02-23T08:01:59.193Z,19.40
2023-02-23T08:03:01.976Z,24.60
2023-02-23T08:04:05.000Z,23.82
2023-02-23T08:05:10.162Z,20.50
2023-02-23T08:06:12.892Z,21.10
2023-02-23T08:07:15.412Z,21.18
2023-02-23T08:08:18.091Z,23.40
2023-02-23T08:09:20.796Z,19.40
2023-02-23T08:10:26.459Z,17.80
2023-02-23T08:11:29.051Z,16.60
2023-02-23T08:12:33.562Z,20.60
2023-02-23T08:13:37.185Z,21.40
2023-02-23T08:14:39.930Z,20.00
2023-02-23T08:15:43.677Z,21.36
2023-02-23T08:16:46.903Z,18.60
2023-02-23T08:17:49.457Z,17.90
2023-02-23T08:18:52.196Z,19.70
2023-02-23T08:19:54.714Z,18.50
2023-02-23T08:21:01.162Z,21.50
2023-02-23T08:22:04.394Z,21.50
2023-02-23T08:23:07.969Z,20.10
2023-02-23T08:24:10.688Z,19.20
2023-02-23T08:25:13.293Z,21.40
2023-02-23T08:26:17.295Z,18.30
2023-02-23T08:27:20.524Z,16.50
2023-02-23T08:28:29.485Z,19.70
2023-02-23T08:29:33.348Z,20.40
2023-02-23T08:30:36.049Z,17.80
2023-02-23T08:31:38.963Z,19.73
2023-02-23T08:32:41.787Z,16.40
2023-02-23T08:33:44.892Z,18.36
2023-02-23T08:34:48.111Z,16.80
2023-02-23T08:35:52.627Z,19.40
2023-02-23T08:36:55.548Z,18.10
2023-02-23T08:37:58.396Z,14.80
2023-02-23T08:39:01.140Z,15.10
2023-02-23T08:40:04.719Z,18.00
2023-02-23T08:41:07.837Z,18.80
2023-02-23T08:42:10.459Z,17.60
2023-02-23T08:43:13.144Z,18.40
2023-02-23T08:44:15.766Z,17.36
2023-02-23T08:45:18.614Z,18.30
2023-02-23T08:46:22.084Z,17.40
2023-02-23T08:47:25.277Z,18.80
2023-02-23T08:48:27.885Z,17.30
2023-02-23T08:49:31.948Z,17.40
2023-02-23T08:50:36.047Z,17.80
2023-02-23T08:51:41.160Z,16.80
2023-02-23T08:52:43.669Z,18.20
2023-02-23T08:53:46.120Z,16.90
2023-02-23T08:54:49.079Z,18.80
2023-02-23T08:55:56.120Z,17.30
2023-02-23T08:56:59.595Z,19.20
2023-02-23T08:58:03.251Z,19.00
2023-02-23T08:59:05.908Z,19.20
2023-02-23T09:00:17.364Z,19.10
2023-02-23T09:01:21.640Z,16.00
2023-02-23T09:02:25.182Z,18.00
2023-02-23T09:03:29.565Z,16.60
2023-02-23T09:05:49.562Z,17.80
2023-02-23T09:06:54.240Z,19.80
2023-02-23T09:07:57.606Z,23.30
2023-02-23T09:09:00.384Z,24.00
2023-02-23T09:10:03.238Z,16.55
2023-02-23T09:11:05.914Z,20.20
2023-02-23T09:12:08.680Z,18.00
2023-02-23T09:13:12.238Z,19.40
2023-02-23T09:14:14.991Z,19.00
2023-02-23T09:15:18.310Z,19.70
2023-02-23T09:16:21.805Z,18.64
2023-02-23T09:17:26.741Z,19.70
2023-02-23T09:18:31.242Z,18.70
2023-02-23T09:19:34.685Z,16.80
2023-02-23T09:20:39.120Z,20.50
2023-02-23T09:21:43.369Z,18.50
2023-02-23T09:22:47.654Z,21.00
2023-02-23T09:23:52.671Z,18.40
2023-02-23T09:24:55.150Z,21.00
2023-02-23T09:25:57.950Z,19.20
2023-02-23T09:27:01.442Z,8.09
2023-02-23T09:28:04.091Z,20.10
2023-02-23T09:29:08.092Z,20.30
2023-02-23T09:30:14.882Z,22.10
2023-02-23T09:31:19.533Z,20.90
2023-02-23T09:32:22.848Z,19.70
2023-02-23T09:33:27.031Z,21.00
2023-02-23T09:34:30.106Z,20.20
2023-02-23T09:35:34.932Z,19.90
2023-02-23T09:36:37.527Z,23.00
2023-02-23T09:37:40.764Z,21.45
2023-02-23T09:38:44.389Z,17.09
2023-02-23T09:39:48.193Z,21.00
2023-02-23T09:40:55.088Z,19.30
2023-02-23T09:42:18.073Z,20.20
2023-02-23T09:43:28.377Z,19.90
2023-02-23T09:44:58.329Z,17.80
2023-02-23T09:46:34.594Z,21.50
2023-02-23T09:47:46.684Z,21.10
2023-02-23T09:48:50.404Z,19.60
2023-02-23T09:49:52.859Z,19.10
2023-02-23T09:50:57.007Z,21.10
2023-02-23T09:51:59.715Z,17.40
2023-02-23T09:53:09.412Z,19.90
2023-02-23T09:54:12.610Z,16.10
2023-02-23T09:55:17.500Z,21.20
2023-02-23T09:56:36.883Z,19.50
2023-02-23T09:57:42.862Z,21.50
2023-02-23T09:58:45.474Z,21.70
2023-02-23T09:59:48.167Z,20.90
2023-02-23T10:01:13.891Z,22.60
2023-02-23T10:02:23.675Z,19.00
2023-02-23T10:03:30.942Z,18.70
2023-02-23T10:04:48.809Z,20.80
2023-02-23T10:07:23.041Z,19.80
2023-02-23T10:08:56.597Z,17.00
2023-02-23T10:10:20.583Z,18.70
2023-02-23T10:11:26.935Z,17.00
2023-02-23T10:12:56.445Z,17.50
2023-02-23T10:14:28.943Z,17.80
2023-02-23T10:17:37.165Z,18.30
2023-02-23T10:20:39.188Z,18.00
2023-02-23T10:21:48.943Z,14.10
2023-02-23T10:22:51.872Z,16.70
2023-02-23T10:24:00.539Z,13.36
2023-02-23T10:25:06.069Z,17.50
2023-02-23T10:26:15.785Z,16.40
2023-02-23T10:27:22.336Z,18.30
2023-02-23T10:28:25.013Z,17.80
2023-02-23T10:31:06.789Z,16.70
2023-02-23T10:32:22.278Z,14.10
2023-02-23T10:33:36.536Z,14.70
2023-02-23T10:34:39.476Z,15.10
2023-02-23T10:35:41.800Z,17.00
2023-02-23T10:36:55.088Z,15.40
2023-02-23T10:37:59.329Z,17.40
2023-02-23T10:39:07.381Z,14.70
2023-02-23T10:40:17.678Z,14.90
2023-02-23T10:41:21.652Z,13.60
2023-02-23T10:42:30.529Z,16.30
2023-02-23T10:43:33.193Z,16.40
2023-02-23T10:44:36.496Z,16.90
2023-02-23T10:47:02.507Z,12.70
2023-02-23T10:48:10.861Z,15.90
2023-02-23T10:49:20.976Z,17.10
2023-02-23T10:51:38.861Z,15.60
2023-02-23T10:52:43.680Z,14.90
2023-02-23T10:53:46.175Z,15.70
2023-02-23T10:54:50.815Z,19.60
2023-02-23T10:57:30.178Z,12.80
2023-02-23T10:58:42.731Z,15.60
2023-02-23T11:00:03.924Z,17.00
2023-02-23T11:01:06.933Z,18.30
2023-02-23T11:03:43.017Z,12.40
2023-02-23T11:04:56.255Z,15.30
2023-02-23T11:05:58.895Z,15.80
2023-02-23T11:08:38.574Z,16.10
2023-02-23T11:09:47.411Z,13.70
2023-02-23T11:11:09.381Z,16.00
2023-02-23T11:12:27.586Z,11.20
2023-02-23T11:14:56.785Z,16.80
2023-02-23T11:16:09.768Z,16.30
2023-02-23T11:17:31.072Z,13.00
2023-02-23T11:18:36.258Z,10.20
2023-02-23T11:19:39.375Z,13.50
2023-02-23T11:20:42.681Z,14.90
2023-02-23T11:21:49.866Z,13.50
2023-02-23T11:22:52.372Z,15.00
2023-02-23T11:24:00.591Z,16.50
2023-02-23T11:25:08.619Z,15.20
2023-02-23T11:26:22.592Z,15.00
2023-02-23T11:27:26.340Z,14.30
2023-02-23T11:28:32.048Z,12.80
2023-02-23T11:29:43.770Z,17.40
2023-02-23T11:30:48.620Z,16.20
2023-02-23T11:31:55.011Z,11.00
2023-02-23T11:33:02.070Z,13.50
2023-02-23T11:34:05.928Z,12.10
2023-02-23T11:35:14.924Z,13.00
2023-02-23T11:37:36.704Z,13.90
2023-02-23T11:38:39.157Z,12.20
2023-02-23T11:39:54.289Z,12.60
2023-02-23T11:41:02.930Z,14.20
2023-02-23T11:42:17.271Z,10.90
2023-02-23T11:43:21.469Z,11.00
2023-02-23T11:44:24.184Z,15.60
2023-02-23T11:45:31.242Z,13.30
2023-02-23T11:46:38.640Z,12.30
2023-02-23T11:47:44.813Z,13.10
2023-02-23T11:48:53.844Z,14.40
2023-02-23T11:49:56.333Z,13.50
2023-02-23T11:50:59.978Z,12.20
2023-02-23T11:52:02.670Z,9.70
2023-02-23T11:53:08.867Z,16.10
2023-02-23T11:54:29.227Z,13.70
2023-02-23T11:55:32.632Z,14.80
2023-02-23T11:56:36.107Z,12.80
2023-02-23T11:57:39.884Z,15.00
2023-02-23T11:58:49.867Z,13.10
2023-02-23T11:59:53.940Z,12.10
2023-02-23T12:02:22.556Z,14.70
2023-02-23T12:03:26.797Z,15.50
2023-02-23T12:04:32.931Z,9.80
2023-02-23T12:05:36.002Z,12.30
2023-02-23T12:06:40.349Z,12.80
2023-02-23T12:07:55.245Z,14.00
2023-02-23T12:09:15.117Z,11.60
2023-02-23T12:10:34.481Z,12.70
2023-02-23T12:11:39.313Z,13.80
2023-02-23T12:12:54.335Z,11.10
2023-02-23T12:15:26.407Z,11.90
2023-02-23T12:16:39.999Z,12.70
2023-02-23T12:17:46.653Z,12.90
2023-02-23T12:19:15.648Z,12.50
2023-02-23T12:20:21.728Z,14.70
2023-02-23T12:21:35.254Z,9.20
2023-02-23T12:22:44.124Z,12.00
2023-02-23T12:23:49.180Z,12.30
2023-02-23T12:26:18.464Z,12.80
2023-02-23T12:27:24.033Z,14.00
2023-02-23T12:28:34.380Z,11.70
2023-02-23T12:29:57.182Z,12.90
2023-02-23T12:31:07.670Z,12.90
2023-02-23T12:32:12.981Z,11.80
2023-02-23T12:33:35.828Z,14.80
2023-02-23T12:34:42.023Z,12.60
2023-02-23T12:36:00.323Z,12.20
2023-02-23T12:37:12.676Z,13.00
2023-02-23T12:38:29.967Z,13.00
2023-02-23T12:39:35.073Z,9.40
2023-02-23T12:40:38.652Z,13.40
2023-02-23T12:41:58.399Z,14.50
2023-02-23T12:44:46.591Z,12.70
2023-02-23T12:45:55.634Z,13.50
2023-02-23T12:47:02.927Z,14.50
2023-02-23T12:48:30.351Z,12.20
2023-02-23T12:50:53.032Z,10.70
2023-02-23T12:53:43.657Z,16.20
2023-02-23T12:54:48.950Z,13.70
2023-02-23T12:56:11.952Z,14.90
2023-02-23T12:57:39.342Z,15.50
2023-02-23T13:00:36.064Z,16.30
2023-02-23T13:01:45.172Z,14.10
2023-02-23T13:02:54.417Z,14.00
2023-02-23T13:04:07.630Z,16.50
2023-02-23T13:05:37.041Z,14.00
2023-02-23T13:06:47.604Z,14.90
2023-02-23T13:09:40.817Z,14.70
2023-02-23T13:12:27.105Z,14.70
2023-02-23T13:16:36.277Z,16.10
2023-02-23T13:17:53.953Z,14.70
2023-02-23T13:19:35.113Z,14.70
2023-02-23T13:20:48.946Z,13.70
2023-02-23T13:21:56.364Z,14.30
2023-02-23T13:23:23.705Z,16.90
2023-02-23T13:24:31.773Z,15.80
2023-02-23T13:26:00.072Z,14.90
2023-02-23T13:28:43.273Z,15.50
2023-02-23T13:29:48.130Z,13.70
2023-02-23T13:30:52.691Z,14.40
2023-02-23T13:31:57.286Z,14.80
2023-02-23T13:33:02.870Z,16.70
2023-02-23T13:34:08.542Z,14.50
2023-02-23T13:35:17.174Z,15.60
2023-02-23T13:36:22.354Z,14.00
2023-02-23T13:37:46.364Z,14.30
2023-02-23T13:40:33.009Z,15.00
2023-02-23T13:41:50.758Z,12.50
2023-02-23T13:42:58.093Z,13.40
2023-02-23T13:44:18.081Z,18.10
2023-02-23T13:45:27.077Z,14.20
2023-02-23T13:46:53.585Z,16.70
2023-02-23T13:47:58.749Z,15.70
2023-02-23T13:49:17.741Z,14.80
2023-02-23T13:50:32.840Z,16.70
2023-02-23T13:51:38.527Z,13.30
2023-02-23T13:52:42.699Z,13.60
2023-02-23T13:53:57.290Z,13.50
2023-02-23T13:55:03.495Z,15.20
2023-02-23T13:57:20.825Z,15.10
2023-02-23T13:58:32.111Z,15.80
2023-02-23T13:59:46.058Z,13.10
2023-02-23T14:02:34.023Z,13.40
2023-02-23T14:03:46.494Z,13.20
2023-02-23T14:04:49.452Z,14.10
2023-02-23T14:05:56.218Z,12.70
2023-02-23T14:07:11.383Z,13.00
2023-02-23T14:08:35.612Z,16.90
2023-02-23T14:09:55.642Z,16.60
2023-02-23T14:10:59.531Z,13.00
2023-02-23T14:12:08.335Z,13.40
2023-02-23T14:13:17.665Z,14.80
2023-02-23T14:14:36.656Z,15.30
2023-02-23T14:15:42.469Z,12.90
2023-02-23T14:18:25.283Z,12.30
2023-02-23T14:19:37.267Z,14.80
2023-02-23T14:20:55.196Z,14.30
2023-02-23T14:22:04.682Z,15.60
2023-02-23T14:23:26.042Z,14.40
2023-02-23T14:24:29.366Z,13.10
2023-02-23T14:25:38.937Z,12.80
2023-02-23T14:28:32.010Z,13.70
2023-02-23T14:31:09.182Z,11.50
2023-02-23T14:32:15.802Z,12.90
2023-02-23T14:33:45.205Z,12.60
2023-02-23T14:34:53.466Z,12.30
2023-02-23T14:35:56.980Z,12.40
2023-02-23T14:37:05.507Z,9.60
2023-02-23T14:38:17.158Z,10.50
2023-02-23T14:39:27.466Z,14.10
2023-02-23T14:40:37.372Z,11.60
2023-02-23T14:41:57.318Z,11.50
2023-02-23T14:43:01.397Z,13.60
2023-02-23T14:44:28.932Z,12.50
2023-02-23T14:47:02.337Z,12.50
2023-02-23T14:48:06.874Z,12.50
2023-02-23T14:49:14.135Z,13.20
2023-02-23T14:50:26.144Z,11.90
2023-02-23T14:51:33.069Z,11.40
2023-02-23T14:53:38.335Z,12.10
2023-02-23T14:54:42.044Z,13.10
2023-02-23T14:55:45.950Z,12.30
2023-02-23T14:56:49.928Z,8.30
2023-02-23T14:57:54.763Z,9.80
2023-02-23T14:58:58.169Z,9.70
2023-02-23T15:00:01.821Z,12.80
2023-02-23T15:01:05.080Z,12.60
2023-02-23T15:02:20.177Z,11.50
2023-02-23T15:03:23.787Z,12.30
2023-02-23T15:04:28.931Z,10.80
2023-02-23T15:05:51.461Z,11.90
2023-02-23T15:08:15.601Z,13.90
2023-02-23T15:10:50.156Z,11.80
2023-02-23T15:11:55.691Z,11.90
2023-02-23T15:12:58.476Z,10.90
2023-02-23T15:14:01.928Z,12.91
2023-02-23T15:15:10.172Z,11.50
2023-02-23T15:16:16.674Z,13.50
2023-02-23T15:17:28.869Z,13.10
2023-02-23T15:20:09.423Z,12.00
2023-02-23T15:21:15.037Z,13.10
2023-02-23T15:23:40.048Z,12.80
2023-02-23T15:24:44.193Z,10.70
2023-02-23T15:25:52.224Z,14.00
2023-02-23T15:26:56.699Z,12.60
2023-02-23T15:28:00.589Z,13.70
2023-02-23T15:30:30.857Z,13.20
2023-02-23T15:31:34.174Z,11.90
2023-02-23T15:32:37.658Z,11.90
2023-02-23T15:33:42.371Z,12.70
2023-02-23T15:34:45.904Z,11.20
2023-02-23T15:36:00.916Z,8.90
2023-02-23T15:37:04.884Z,12.30
2023-02-23T15:38:14.236Z,10.00
2023-02-23T15:39:13.570Z,8.10
2023-02-23T15:40:17.585Z,13.40
2023-02-23T15:41:26.653Z,12.20
2023-02-23T15:43:49.089Z,8.20
2023-02-23T15:44:58.849Z,13.27
2023-02-23T15:46:04.102Z,8.50
2023-02-23T15:48:23.836Z,12.10
2023-02-23T15:49:31.754Z,11.50
2023-02-23T15:50:37.179Z,11.00
2023-02-23T15:51:49.617Z,13.50
2023-02-23T15:52:54.705Z,12.90
2023-02-23T15:53:58.337Z,14.00
2023-02-23T15:56:27.887Z,14.60